LFBI/PIS METAR and TAF weather

Enter ICAO airport designator
Station Type Date Time Source
LFBI METAR 2018/12/10 02:00 UTC NOAA

LFBI 100200Z AUTO 28006KT CAVOK 07/05 Q1030 NOSIG


Station Type Date Time Source
LFBI Decoded METAR 2018/12/10 02:00 UTC NOAA

Poitiers, France (LFBI) 46-35N 000-19E 120M
Dec 09, 2018 - 09:00 PM EST / 2018.12.10 0200 UTC
Wind: from the W (280 degrees) at 7 MPH (6 KT):0
Visibility: greater than 7 mile(s):0
Temperature: 44 F (7 C)
Dew Point: 41 F (5 C)
Relative Humidity: 87%
Pressure (altimeter): 30.42 in. Hg (1030 hPa)
ob: LFBI 100200Z AUTO 28006KT CAVOK 07/05 Q1030 NOSIG
cycle: 2

Station Type Date Time Source
LFBI TAF 2018/12/09 18:21 UTC NOAA

TAF LFBI 091700Z 0918/1018 26015G30KT 9999 BKN040
BECMG 0919/0921 27010KT PROB30 1005/1008 0800 BCFG
BECMG 1012/1014 33010KT


Example: see airport list